createdAt,value
2019-03-15T00:00:01.195Z,100.00
2019-03-15T00:02:31.348Z,100.00
2019-03-15T00:05:01.685Z,100.00
2019-03-15T00:07:31.471Z,100.00
2019-03-15T00:10:00.964Z,100.00
2019-03-15T00:12:30.132Z,100.00
2019-03-15T00:14:59.375Z,100.00
2019-03-15T00:17:29.019Z,100.00
2019-03-15T00:19:58.243Z,100.00
2019-03-15T00:22:27.795Z,100.00
2019-03-15T00:24:57.332Z,100.00
2019-03-15T00:27:26.548Z,100.00
2019-03-15T00:29:55.702Z,100.00
2019-03-15T00:32:26.070Z,100.00
2019-03-15T00:34:56.256Z,100.00
2019-03-15T00:37:25.438Z,100.00
2019-03-15T00:39:55.089Z,99.31
2019-03-15T00:42:24.860Z,98.90
2019-03-15T00:44:54.174Z,98.50
2019-03-15T00:47:23.706Z,98.69
2019-03-15T00:49:52.881Z,98.29
2019-03-15T00:52:22.097Z,97.18
2019-03-15T00:54:51.861Z,96.13
2019-03-15T00:57:25.609Z,96.24
2019-03-15T00:59:55.238Z,95.86
2019-03-15T01:02:24.701Z,95.97
2019-03-15T01:04:54.751Z,96.04
2019-03-15T01:07:24.032Z,96.12
2019-03-15T01:09:53.485Z,96.13
2019-03-15T01:12:22.734Z,96.08
2019-03-15T01:14:52.763Z,96.38
2019-03-15T01:17:22.279Z,96.58
2019-03-15T01:19:51.501Z,96.88
2019-03-15T01:22:20.676Z,96.89
2019-03-15T01:24:50.782Z,96.51
2019-03-15T01:27:20.412Z,96.19
2019-03-15T01:29:49.555Z,96.37
2019-03-15T01:32:19.099Z,96.31
2019-03-15T01:34:48.251Z,96.12
2019-03-15T01:37:17.941Z,96.29
2019-03-15T01:39:47.368Z,96.23
2019-03-15T01:42:17.167Z,96.06
2019-03-15T01:44:46.326Z,96.22
2019-03-15T01:47:15.728Z,96.13
2019-03-15T01:49:46.024Z,95.92
2019-03-15T01:52:15.666Z,95.69
2019-03-15T01:54:45.647Z,95.60
2019-03-15T01:57:14.981Z,95.60
2019-03-15T01:59:44.663Z,95.73
2019-03-15T02:02:14.732Z,95.72
2019-03-15T02:04:44.586Z,95.65
2019-03-15T02:07:14.167Z,95.67
2019-03-15T02:09:44.600Z,95.72
2019-03-15T02:12:14.531Z,95.43
2019-03-15T02:14:44.075Z,95.54
2019-03-15T02:17:14.808Z,95.58
2019-03-15T02:19:44.510Z,95.43
2019-03-15T02:22:14.170Z,95.44
2019-03-15T02:24:44.361Z,95.30
2019-03-15T02:27:13.923Z,95.11
2019-03-15T02:29:44.069Z,95.09
2019-03-15T02:32:14.087Z,94.93
2019-03-15T02:34:43.515Z,95.30
2019-03-15T02:37:13.377Z,95.42
2019-03-15T02:39:43.304Z,95.92
2019-03-15T02:42:12.416Z,96.06
2019-03-15T02:44:41.667Z,95.99
2019-03-15T02:47:11.851Z,96.08
2019-03-15T02:49:41.131Z,96.14
2019-03-15T02:52:10.388Z,96.35
2019-03-15T02:54:41.528Z,96.80
2019-03-15T02:57:11.335Z,96.89
2019-03-15T02:59:40.734Z,97.00
2019-03-15T03:02:09.956Z,97.52
2019-03-15T03:04:40.921Z,97.66
2019-03-15T03:07:09.600Z,97.68
2019-03-15T03:09:39.302Z,97.60
2019-03-15T03:12:08.488Z,97.68
2019-03-15T03:14:38.455Z,97.62
2019-03-15T03:17:09.370Z,97.63
2019-03-15T03:19:39.954Z,97.89
2019-03-15T03:22:09.422Z,97.88
2019-03-15T03:24:39.399Z,97.78
2019-03-15T03:27:08.855Z,98.04
2019-03-15T03:29:38.497Z,98.21
2019-03-15T03:32:08.691Z,98.11
2019-03-15T03:34:40.437Z,98.45
2019-03-15T03:37:07.831Z,98.43
2019-03-15T03:39:38.011Z,98.95
2019-03-15T03:42:07.836Z,99.18
2019-03-15T03:44:37.649Z,99.78
2019-03-15T03:47:07.579Z,100.00
2019-03-15T03:49:37.509Z,100.00
2019-03-15T03:52:07.194Z,100.00
2019-03-15T03:54:37.211Z,100.00
2019-03-15T03:57:07.239Z,100.00
2019-03-15T03:59:37.183Z,100.00
2019-03-15T04:02:06.685Z,100.00
2019-03-15T04:04:36.602Z,100.00
2019-03-15T04:07:06.402Z,100.00
2019-03-15T04:09:36.154Z,100.00
2019-03-15T04:12:05.619Z,100.00
2019-03-15T04:14:34.769Z,100.00
2019-03-15T04:17:03.879Z,100.00
2019-03-15T04:19:33.757Z,100.00
2019-03-15T04:22:03.083Z,100.00
2019-03-15T04:24:32.630Z,100.00
2019-03-15T04:27:02.115Z,100.00
2019-03-15T04:29:31.311Z,100.00
2019-03-15T04:32:01.438Z,100.00
2019-03-15T04:34:30.707Z,100.00
2019-03-15T04:36:59.969Z,100.00
2019-03-15T04:39:30.319Z,100.00
2019-03-15T04:42:00.689Z,100.00
2019-03-15T04:44:31.756Z,100.00
2019-03-15T04:47:01.948Z,100.00
2019-03-15T04:49:31.248Z,100.00
2019-03-15T04:52:00.989Z,100.00
2019-03-15T04:54:31.352Z,100.00
2019-03-15T04:57:01.315Z,100.00
2019-03-15T04:59:30.839Z,100.00
2019-03-15T05:02:03.686Z,100.00
2019-03-15T05:04:34.380Z,100.00
2019-03-15T05:07:04.202Z,100.00
2019-03-15T05:09:33.977Z,100.00
2019-03-15T05:12:03.268Z,100.00
2019-03-15T05:14:33.228Z,100.00
2019-03-15T05:17:02.899Z,100.00
2019-03-15T05:19:32.079Z,100.00
2019-03-15T05:22:01.591Z,100.00
2019-03-15T05:24:30.787Z,100.00
2019-03-15T05:26:59.887Z,100.00
2019-03-15T05:29:30.042Z,100.00
2019-03-15T05:31:59.703Z,100.00
2019-03-15T05:34:29.075Z,100.00
2019-03-15T05:36:58.743Z,100.00
2019-03-15T05:39:27.986Z,100.00
2019-03-15T05:41:57.156Z,100.00
2019-03-15T05:44:27.243Z,100.00
2019-03-15T05:46:56.478Z,100.00
2019-03-15T05:49:26.510Z,100.00
2019-03-15T05:51:56.150Z,100.00
2019-03-15T05:54:25.942Z,100.00
2019-03-15T05:56:55.123Z,100.00
2019-03-15T05:59:25.039Z,100.00
2019-03-15T06:01:54.481Z,100.00
2019-03-15T06:04:24.275Z,100.00
2019-03-15T06:06:54.377Z,100.00
2019-03-15T06:09:24.128Z,100.00
2019-03-15T06:11:53.830Z,100.00
2019-03-15T06:14:25.015Z,100.00
2019-03-15T06:16:54.195Z,100.00
2019-03-15T06:19:23.411Z,100.00
2019-03-15T06:21:52.891Z,100.00
2019-03-15T06:24:22.182Z,100.00
2019-03-15T06:26:51.407Z,100.00
2019-03-15T06:29:20.834Z,100.00
2019-03-15T06:31:50.015Z,100.00
2019-03-15T06:34:20.863Z,100.00
2019-03-15T06:36:50.303Z,100.00
2019-03-15T06:39:19.975Z,100.00
2019-03-15T06:41:49.131Z,100.00
2019-03-15T06:44:18.659Z,100.00
2019-03-15T06:46:47.892Z,100.00
2019-03-15T06:49:17.040Z,100.00
2019-03-15T06:51:47.256Z,100.00
2019-03-15T06:54:16.772Z,100.00
2019-03-15T06:56:46.020Z,100.00
2019-03-15T06:59:15.567Z,100.00
2019-03-15T07:01:45.807Z,100.00
2019-03-15T07:04:15.020Z,100.00
2019-03-15T07:06:45.272Z,100.00
2019-03-15T07:09:15.166Z,100.00
2019-03-15T07:11:44.795Z,100.00
2019-03-15T07:14:14.283Z,100.00
2019-03-15T07:16:43.510Z,100.00
2019-03-15T07:19:25.604Z,100.00
2019-03-15T07:21:42.891Z,100.00
2019-03-15T07:24:24.608Z,100.00
2019-03-15T07:26:43.737Z,100.00
2019-03-15T07:29:11.575Z,100.00
2019-03-15T07:31:40.695Z,100.00
2019-03-15T07:34:10.024Z,100.00
2019-03-15T07:36:40.112Z,100.00
2019-03-15T07:39:12.643Z,100.00
2019-03-15T07:41:39.330Z,100.00
2019-03-15T07:44:09.314Z,100.00
2019-03-15T07:46:40.051Z,99.76
2019-03-15T07:49:09.332Z,99.46
2019-03-15T07:51:40.080Z,98.88
2019-03-15T07:54:09.294Z,99.24
2019-03-15T07:56:38.834Z,99.57
2019-03-15T07:59:08.287Z,99.33
2019-03-15T08:01:38.137Z,98.90
2019-03-15T08:04:16.704Z,98.73
2019-03-15T08:06:38.343Z,98.87
2019-03-15T08:09:08.191Z,98.43
2019-03-15T08:11:37.654Z,98.58
2019-03-15T08:14:07.743Z,98.62
2019-03-15T08:16:37.787Z,98.35
2019-03-15T08:19:07.857Z,98.53
2019-03-15T08:21:37.066Z,98.60
2019-03-15T08:24:06.702Z,98.85
2019-03-15T08:26:36.727Z,99.15
2019-03-15T08:29:09.270Z,98.79
2019-03-15T08:31:35.375Z,98.62
2019-03-15T08:34:04.920Z,97.94
2019-03-15T08:36:35.841Z,98.66
2019-03-15T08:39:06.123Z,99.10
2019-03-15T08:41:35.612Z,99.82
2019-03-15T08:44:04.899Z,100.00
2019-03-15T08:46:35.499Z,100.00
2019-03-15T08:49:05.219Z,100.00
2019-03-15T08:51:35.019Z,100.00
2019-03-15T08:54:04.831Z,100.00
2019-03-15T08:56:34.262Z,100.00
2019-03-15T08:59:03.547Z,100.00
2019-03-15T09:01:32.851Z,100.00
2019-03-15T09:04:02.291Z,100.00
2019-03-15T09:06:31.479Z,100.00
2019-03-15T09:09:00.752Z,100.00
2019-03-15T09:11:30.489Z,100.00
2019-03-15T09:13:59.651Z,100.00
2019-03-15T09:16:29.078Z,100.00
2019-03-15T09:18:59.175Z,100.00
2019-03-15T09:21:28.328Z,100.00
2019-03-15T09:23:57.875Z,100.00
2019-03-15T09:26:27.545Z,100.00
2019-03-15T09:28:56.744Z,100.00
2019-03-15T09:31:25.887Z,100.00
2019-03-15T09:33:55.599Z,100.00
2019-03-15T09:36:25.457Z,100.00
2019-03-15T09:38:54.720Z,100.00
2019-03-15T09:41:32.089Z,100.00
2019-03-15T09:43:53.767Z,100.00
2019-03-15T09:46:22.935Z,100.00
2019-03-15T09:48:52.624Z,100.00
2019-03-15T09:51:22.251Z,100.00
2019-03-15T09:53:51.677Z,100.00
2019-03-15T09:56:21.215Z,100.00
2019-03-15T09:58:50.751Z,100.00
2019-03-15T10:01:34.196Z,100.00
2019-03-15T10:03:49.535Z,100.00
2019-03-15T10:06:19.682Z,100.00
2019-03-15T10:08:48.917Z,100.00
2019-03-15T10:11:19.098Z,100.00
2019-03-15T10:13:48.299Z,100.00
2019-03-15T10:16:17.563Z,100.00
2019-03-15T10:18:50.278Z,100.00
2019-03-15T10:21:16.747Z,100.00
2019-03-15T10:23:45.899Z,100.00
2019-03-15T10:26:15.386Z,100.00
2019-03-15T10:28:44.626Z,100.00
2019-03-15T10:31:15.896Z,100.00
2019-03-15T10:33:50.829Z,100.00
2019-03-15T10:36:17.645Z,100.00
2019-03-15T10:38:49.322Z,100.00
2019-03-15T10:41:18.567Z,100.00
2019-03-15T10:43:47.822Z,100.00
2019-03-15T10:46:19.246Z,100.00
2019-03-15T10:48:48.489Z,100.00
2019-03-15T10:51:17.683Z,100.00
2019-03-15T10:53:47.189Z,100.00
2019-03-15T10:56:16.507Z,100.00
2019-03-15T10:58:45.670Z,100.00
2019-03-15T11:01:15.331Z,100.00
2019-03-15T11:03:44.779Z,100.00
2019-03-15T11:06:14.166Z,100.00
2019-03-15T11:08:46.679Z,100.00
2019-03-15T11:11:16.434Z,100.00
2019-03-15T11:13:45.591Z,100.00
2019-03-15T11:16:15.311Z,100.00
2019-03-15T11:18:44.967Z,100.00
2019-03-15T11:21:14.196Z,100.00
2019-03-15T11:23:44.269Z,100.00
2019-03-15T11:26:14.258Z,100.00
2019-03-15T11:28:43.402Z,100.00
2019-03-15T11:31:12.815Z,100.00
2019-03-15T11:33:42.064Z,100.00
2019-03-15T11:36:15.599Z,100.00
2019-03-15T11:38:44.981Z,100.00
2019-03-15T11:41:14.207Z,100.00
2019-03-15T11:43:43.341Z,100.00
2019-03-15T11:46:12.806Z,100.00
2019-03-15T11:48:41.975Z,100.00
2019-03-15T11:51:11.345Z,100.00
2019-03-15T11:53:41.263Z,100.00
2019-03-15T11:56:10.442Z,100.00
2019-03-15T11:58:39.568Z,100.00
2019-03-15T12:01:09.167Z,100.00
2019-03-15T12:03:52.102Z,100.00
2019-03-15T12:06:07.767Z,100.00
2019-03-15T12:08:37.159Z,100.00
2019-03-15T12:11:06.696Z,100.00
2019-03-15T12:13:35.962Z,100.00
2019-03-15T12:16:05.547Z,100.00
2019-03-15T12:18:35.165Z,100.00
2019-03-15T12:21:04.391Z,100.00
2019-03-15T12:23:34.882Z,100.00
2019-03-15T12:26:04.526Z,100.00
2019-03-15T12:28:33.918Z,100.00
2019-03-15T12:31:03.815Z,100.00
2019-03-15T12:33:34.099Z,100.00
2019-03-15T12:36:03.609Z,100.00
2019-03-15T12:38:33.795Z,100.00
2019-03-15T12:41:03.284Z,100.00
2019-03-15T12:43:32.462Z,100.00
2019-03-15T12:46:01.950Z,100.00
2019-03-15T12:48:31.243Z,100.00
2019-03-15T12:51:00.455Z,100.00
2019-03-15T12:53:29.995Z,100.00
2019-03-15T12:55:59.208Z,100.00
2019-03-15T12:58:28.437Z,100.00
2019-03-15T13:00:57.982Z,100.00
2019-03-15T13:03:27.231Z,100.00
2019-03-15T13:05:56.351Z,100.00
2019-03-15T13:08:25.885Z,100.00
2019-03-15T13:10:55.093Z,100.00
2019-03-15T13:13:24.447Z,100.00
2019-03-15T13:15:54.503Z,100.00
2019-03-15T13:18:24.406Z,100.00
2019-03-15T13:20:53.583Z,100.00
2019-03-15T13:23:23.067Z,100.00
2019-03-15T13:25:54.680Z,100.00
2019-03-15T13:28:23.127Z,100.00
2019-03-15T13:30:53.183Z,100.00
2019-03-15T13:33:22.523Z,100.00
2019-03-15T13:35:51.818Z,100.00
2019-03-15T13:38:21.436Z,100.00
2019-03-15T13:40:51.383Z,100.00
2019-03-15T13:43:20.735Z,100.00
2019-03-15T13:45:50.153Z,100.00
2019-03-15T13:48:19.346Z,100.00
2019-03-15T13:50:48.579Z,100.00
2019-03-15T13:53:18.858Z,100.00
2019-03-15T13:55:48.018Z,100.00
2019-03-15T13:58:17.146Z,100.00
2019-03-15T14:00:46.743Z,100.00
2019-03-15T14:03:16.725Z,100.00
2019-03-15T14:05:47.630Z,100.00
2019-03-15T14:08:17.301Z,100.00
2019-03-15T14:10:49.535Z,100.00
2019-03-15T14:13:16.015Z,100.00
2019-03-15T14:15:45.478Z,100.00
2019-03-15T14:18:14.605Z,100.00
2019-03-15T14:20:43.847Z,100.00
2019-03-15T14:23:13.262Z,100.00
2019-03-15T14:25:42.446Z,100.00
2019-03-15T14:28:11.652Z,100.00
2019-03-15T14:30:42.391Z,100.00
2019-03-15T14:33:11.522Z,100.00
2019-03-15T14:35:40.771Z,100.00
2019-03-15T14:38:10.837Z,100.00
2019-03-15T14:40:40.054Z,100.00
2019-03-15T14:43:10.738Z,100.00
2019-03-15T14:45:40.879Z,100.00
2019-03-15T14:48:10.057Z,100.00
2019-03-15T14:50:39.261Z,100.00
2019-03-15T14:53:09.187Z,100.00
2019-03-15T14:55:38.619Z,100.00
2019-03-15T14:58:08.031Z,100.00
2019-03-15T15:00:37.718Z,100.00
2019-03-15T15:03:07.119Z,100.00
2019-03-15T15:05:36.570Z,100.00
2019-03-15T15:08:06.571Z,100.00
2019-03-15T15:10:36.771Z,100.00
2019-03-15T15:13:06.889Z,100.00
2019-03-15T15:15:37.180Z,100.00
2019-03-15T15:20:41.996Z,100.00
2019-03-15T15:23:12.032Z,100.00
2019-03-15T15:25:42.206Z,100.00
2019-03-15T15:28:43.023Z,100.00
2019-03-15T15:31:12.826Z,100.00
2019-03-15T15:33:42.072Z,100.00
2019-03-15T15:36:11.541Z,100.00
2019-03-15T15:38:43.419Z,100.00
2019-03-15T15:41:12.747Z,100.00
2019-03-15T15:43:42.096Z,100.00
2019-03-15T15:46:11.811Z,100.00
2019-03-15T15:48:42.332Z,100.00
2019-03-15T15:51:11.816Z,100.00
2019-03-15T15:53:44.524Z,100.00
2019-03-15T15:56:14.273Z,100.00
2019-03-15T15:58:43.623Z,100.00
2019-03-15T16:01:13.043Z,100.00
2019-03-15T16:03:42.366Z,100.00
2019-03-15T16:06:11.667Z,100.00
2019-03-15T16:08:41.142Z,100.00
2019-03-15T16:11:10.571Z,100.00
2019-03-15T16:13:39.846Z,100.00
2019-03-15T16:16:09.486Z,100.00
2019-03-15T16:18:38.675Z,100.00
2019-03-15T16:21:08.145Z,100.00
2019-03-15T16:23:37.668Z,100.00
2019-03-15T16:26:06.936Z,100.00
2019-03-15T16:28:36.372Z,100.00
2019-03-15T16:31:06.450Z,100.00
2019-03-15T16:33:35.884Z,100.00
2019-03-15T16:36:06.086Z,100.00
2019-03-15T16:38:35.854Z,100.00
2019-03-15T16:41:05.462Z,100.00
2019-03-15T16:43:34.827Z,100.00
2019-03-15T16:46:04.405Z,100.00
2019-03-15T16:48:33.706Z,100.00
2019-03-15T16:51:02.862Z,100.00
2019-03-15T16:53:32.536Z,100.00
2019-03-15T16:56:02.069Z,100.00
2019-03-15T16:58:44.454Z,100.00
2019-03-15T17:01:01.161Z,100.00
2019-03-15T17:03:30.437Z,100.00
2019-03-15T17:05:59.586Z,100.00
2019-03-15T17:08:29.091Z,100.00
2019-03-15T17:10:58.255Z,100.00
2019-03-15T17:13:27.557Z,100.00
2019-03-15T17:15:57.052Z,100.00
2019-03-15T17:18:26.309Z,100.00
2019-03-15T17:20:55.599Z,100.00
2019-03-15T17:23:25.291Z,100.00
2019-03-15T17:25:55.040Z,100.00
2019-03-15T17:28:24.418Z,100.00
2019-03-15T17:30:54.018Z,100.00
2019-03-15T17:33:23.458Z,100.00
2019-03-15T17:35:52.652Z,100.00
2019-03-15T17:38:22.095Z,100.00
2019-03-15T17:40:51.497Z,100.00
2019-03-15T17:43:20.908Z,100.00
2019-03-15T17:45:50.465Z,100.00
2019-03-15T17:48:19.673Z,100.00
2019-03-15T17:50:48.846Z,100.00
2019-03-15T17:53:18.304Z,100.00
2019-03-15T17:55:47.836Z,100.00
2019-03-15T17:58:16.960Z,100.00
2019-03-15T18:00:47.214Z,100.00
2019-03-15T18:03:21.533Z,100.00
2019-03-15T18:05:46.243Z,100.00
2019-03-15T18:08:15.750Z,100.00
2019-03-15T18:10:45.198Z,100.00
2019-03-15T18:13:14.309Z,100.00
2019-03-15T18:15:43.794Z,100.00
2019-03-15T18:18:12.994Z,100.00
2019-03-15T18:20:42.161Z,100.00
2019-03-15T18:23:11.658Z,100.00
2019-03-15T18:25:40.993Z,100.00
2019-03-15T18:28:10.168Z,100.00
2019-03-15T18:30:39.684Z,100.00
2019-03-15T18:33:09.332Z,100.00
2019-03-15T18:35:38.519Z,100.00
2019-03-15T18:38:09.170Z,100.00
2019-03-15T18:40:38.407Z,100.00
2019-03-15T18:43:07.571Z,100.00
2019-03-15T18:45:37.763Z,100.00
2019-03-15T18:48:07.031Z,100.00
2019-03-15T18:50:36.978Z,100.00
2019-03-15T18:53:07.022Z,100.00
2019-03-15T18:55:36.875Z,100.00
2019-03-15T18:58:06.381Z,100.00
2019-03-15T19:00:35.935Z,100.00
2019-03-15T19:03:05.443Z,100.00
2019-03-15T19:05:34.552Z,100.00
2019-03-15T19:08:04.117Z,100.00
2019-03-15T19:10:33.429Z,100.00
2019-03-15T19:13:02.780Z,100.00
2019-03-15T19:15:32.411Z,100.00
2019-03-15T19:18:01.812Z,100.00
2019-03-15T19:20:31.472Z,100.00
2019-03-15T19:23:01.081Z,100.00
2019-03-15T19:25:30.371Z,100.00
2019-03-15T19:28:00.246Z,100.00
2019-03-15T19:30:29.827Z,100.00
2019-03-15T19:32:59.258Z,100.00
2019-03-15T19:35:28.532Z,100.00
2019-03-15T19:37:58.032Z,100.00
2019-03-15T19:40:27.441Z,100.00
2019-03-15T19:42:56.763Z,100.00
2019-03-15T19:45:26.259Z,100.00
2019-03-15T19:47:55.479Z,100.00
2019-03-15T19:50:24.776Z,100.00
2019-03-15T19:52:54.411Z,100.00
2019-03-15T19:55:23.620Z,100.00
2019-03-15T19:57:52.779Z,100.00
2019-03-15T20:00:22.269Z,100.00
2019-03-15T20:02:51.985Z,100.00
2019-03-15T20:05:21.312Z,100.00
2019-03-15T20:07:51.000Z,100.00
2019-03-15T20:10:20.190Z,100.00
2019-03-15T20:12:49.707Z,100.00
2019-03-15T20:15:19.413Z,100.00
2019-03-15T20:17:48.747Z,100.00
2019-03-15T20:20:18.182Z,100.00
2019-03-15T20:22:47.679Z,100.00
2019-03-15T20:25:17.152Z,100.00
2019-03-15T20:27:46.427Z,100.00
2019-03-15T20:30:21.554Z,100.00
2019-03-15T20:32:45.823Z,100.00
2019-03-15T20:35:15.008Z,100.00
2019-03-15T20:37:44.482Z,100.00
2019-03-15T20:40:13.759Z,100.00
2019-03-15T20:42:42.975Z,100.00
2019-03-15T20:45:13.759Z,100.00
2019-03-15T20:47:43.259Z,100.00
2019-03-15T20:50:13.176Z,100.00
2019-03-15T20:52:43.028Z,100.00
2019-03-15T20:55:12.360Z,100.00
2019-03-15T20:57:42.042Z,100.00
2019-03-15T21:00:13.844Z,100.00
2019-03-15T21:02:43.502Z,100.00
2019-03-15T21:05:12.743Z,100.00
2019-03-15T21:07:43.812Z,100.00
2019-03-15T21:10:11.732Z,100.00
2019-03-15T21:12:41.161Z,100.00
2019-03-15T21:15:11.332Z,100.00
2019-03-15T21:17:40.584Z,100.00
2019-03-15T21:20:10.624Z,100.00
2019-03-15T21:22:40.066Z,100.00
2019-03-15T21:25:09.682Z,100.00
2019-03-15T21:27:52.546Z,100.00
2019-03-15T21:30:11.411Z,100.00
2019-03-15T21:32:40.750Z,100.00
2019-03-15T21:35:10.219Z,100.00
2019-03-15T21:37:39.386Z,100.00
2019-03-15T21:40:09.706Z,100.00
2019-03-15T21:42:39.275Z,100.00
2019-03-15T21:45:08.568Z,100.00
2019-03-15T21:47:37.859Z,100.00
2019-03-15T21:50:08.982Z,100.00
2019-03-15T21:52:38.695Z,100.00
2019-03-15T21:55:08.015Z,100.00
2019-03-15T21:57:37.567Z,100.00
2019-03-15T22:00:07.980Z,100.00
2019-03-15T22:02:37.170Z,100.00
2019-03-15T22:05:07.503Z,100.00
2019-03-15T22:07:37.131Z,100.00
2019-03-15T22:10:07.352Z,100.00
2019-03-15T22:12:38.554Z,100.00
2019-03-15T22:15:08.377Z,100.00
2019-03-15T22:17:37.770Z,100.00
2019-03-15T22:20:08.621Z,99.89
2019-03-15T22:22:37.814Z,99.77
2019-03-15T22:25:07.339Z,99.01
2019-03-15T22:27:36.763Z,100.00
2019-03-15T22:30:06.238Z,99.93
2019-03-15T22:32:35.470Z,99.85
2019-03-15T22:35:05.335Z,99.27
2019-03-15T22:37:35.722Z,99.31
2019-03-15T22:40:05.252Z,98.53
2019-03-15T22:42:34.834Z,98.76
2019-03-15T22:45:04.884Z,99.65
2019-03-15T22:47:34.097Z,99.72
2019-03-15T22:50:03.971Z,100.00
2019-03-15T22:52:33.647Z,100.00
2019-03-15T22:55:02.992Z,100.00
2019-03-15T22:57:32.511Z,100.00
2019-03-15T23:00:01.724Z,99.81
2019-03-15T23:02:31.023Z,97.65
2019-03-15T23:05:00.618Z,96.12
2019-03-15T23:07:30.699Z,94.33
2019-03-15T23:10:00.500Z,93.81
2019-03-15T23:12:30.754Z,93.67
2019-03-15T23:14:59.908Z,94.67
2019-03-15T23:17:30.568Z,96.07
2019-03-15T23:20:00.906Z,97.40
2019-03-15T23:22:30.174Z,99.19
2019-03-15T23:24:59.320Z,100.00
2019-03-15T23:27:28.748Z,100.00
2019-03-15T23:29:58.475Z,100.00
2019-03-15T23:32:27.713Z,100.00
2019-03-15T23:34:57.232Z,100.00
2019-03-15T23:37:26.387Z,100.00
2019-03-15T23:39:55.597Z,98.96
2019-03-15T23:42:25.116Z,98.52
2019-03-15T23:44:54.322Z,97.69
2019-03-15T23:47:23.515Z,97.62
2019-03-15T23:49:53.779Z,97.38
2019-03-15T23:52:22.981Z,97.09
2019-03-15T23:54:53.755Z,97.83
2019-03-15T23:57:24.114Z,98.51
2019-03-15T23:59:53.255Z,99.07
